sensor_id;sensor_type;location;lat;lon;timestamp;temperature;humidity
74416;SHT31;62850;42.428;25.618;2023-08-07T00:00:23;23.20;60.90
74416;SHT31;62850;42.428;25.618;2023-08-07T00:02:48;23.18;61.03
74416;SHT31;62850;42.428;25.618;2023-08-07T00:05:14;23.15;61.04
74416;SHT31;62850;42.428;25.618;2023-08-07T00:07:42;23.20;60.81
74416;SHT31;62850;42.428;25.618;2023-08-07T00:10:08;23.23;60.73
74416;SHT31;62850;42.428;25.618;2023-08-07T00:12:33;23.19;60.87
74416;SHT31;62850;42.428;25.618;2023-08-07T00:14:59;23.29;60.52
74416;SHT31;62850;42.428;25.618;2023-08-07T00:17:25;23.38;60.29
74416;SHT31;62850;42.428;25.618;2023-08-07T00:19:51;23.41;60.10
74416;SHT31;62850;42.428;25.618;2023-08-07T00:22:16;23.36;60.03
74416;SHT31;62850;42.428;25.618;2023-08-07T00:24:42;23.36;60.19
74416;SHT31;62850;42.428;25.618;2023-08-07T00:27:07;23.42;59.69
74416;SHT31;62850;42.428;25.618;2023-08-07T00:29:35;23.49;59.25
74416;SHT31;62850;42.428;25.618;2023-08-07T00:32:02;23.52;58.77
74416;SHT31;62850;42.428;25.618;2023-08-07T00:34:28;23.55;58.55
74416;SHT31;62850;42.428;25.618;2023-08-07T00:36:53;23.52;57.89
74416;SHT31;62850;42.428;25.618;2023-08-07T00:39:19;23.53;57.12
74416;SHT31;62850;42.428;25.618;2023-08-07T00:41:44;23.50;56.76
74416;SHT31;62850;42.428;25.618;2023-08-07T00:44:10;23.52;56.87
74416;SHT31;62850;42.428;25.618;2023-08-07T00:46:35;23.52;57.01
74416;SHT31;62850;42.428;25.618;2023-08-07T00:49:02;23.55;57.16
74416;SHT31;62850;42.428;25.618;2023-08-07T00:51:28;23.55;57.10
74416;SHT31;62850;42.428;25.618;2023-08-07T00:53:54;23.50;57.07
74416;SHT31;62850;42.428;25.618;2023-08-07T00:56:20;23.45;57.35
74416;SHT31;62850;42.428;25.618;2023-08-07T00:58:46;23.35;57.58
74416;SHT31;62850;42.428;25.618;2023-08-07T01:01:11;23.30;57.52
74416;SHT31;62850;42.428;25.618;2023-08-07T01:03:38;23.14;57.91
74416;SHT31;62850;42.428;25.618;2023-08-07T01:06:03;22.99;58.22
74416;SHT31;62850;42.428;25.618;2023-08-07T01:08:29;23.01;58.12
74416;SHT31;62850;42.428;25.618;2023-08-07T01:13:34;23.02;58.29
74416;SHT31;62850;42.428;25.618;2023-08-07T01:16:05;23.07;57.93
74416;SHT31;62850;42.428;25.618;2023-08-07T01:18:34;23.14;57.47
74416;SHT31;62850;42.428;25.618;2023-08-07T01:21:03;23.15;57.86
74416;SHT31;62850;42.428;25.618;2023-08-07T01:23:29;23.09;57.86
74416;SHT31;62850;42.428;25.618;2023-08-07T01:25:54;23.05;58.09
74416;SHT31;62850;42.428;25.618;2023-08-07T01:28:26;23.09;57.90
74416;SHT31;62850;42.428;25.618;2023-08-07T01:30:56;23.05;57.62
74416;SHT31;62850;42.428;25.618;2023-08-07T01:33:32;22.99;57.74
74416;SHT31;62850;42.428;25.618;2023-08-07T01:36:02;22.95;57.91
74416;SHT31;62850;42.428;25.618;2023-08-07T01:38:29;22.94;57.75
74416;SHT31;62850;42.428;25.618;2023-08-07T01:40:56;22.97;58.44
74416;SHT31;62850;42.428;25.618;2023-08-07T01:43:22;22.90;57.92
74416;SHT31;62850;42.428;25.618;2023-08-07T01:45:48;22.77;58.40
74416;SHT31;62850;42.428;25.618;2023-08-07T01:48:13;22.68;58.58
74416;SHT31;62850;42.428;25.618;2023-08-07T01:50:39;22.63;59.07
74416;SHT31;62850;42.428;25.618;2023-08-07T01:53:05;22.63;59.06
74416;SHT31;62850;42.428;25.618;2023-08-07T01:55:31;22.65;59.51
74416;SHT31;62850;42.428;25.618;2023-08-07T01:57:56;22.58;59.64
74416;SHT31;62850;42.428;25.618;2023-08-07T02:00:22;22.63;59.86
74416;SHT31;62850;42.428;25.618;2023-08-07T02:02:47;22.65;59.97
74416;SHT31;62850;42.428;25.618;2023-08-07T02:05:14;22.60;60.61
74416;SHT31;62850;42.428;25.618;2023-08-07T02:07:40;22.54;60.75
74416;SHT31;62850;42.428;25.618;2023-08-07T02:10:06;22.54;61.07
74416;SHT31;62850;42.428;25.618;2023-08-07T02:12:31;22.54;61.16
74416;SHT31;62850;42.428;25.618;2023-08-07T02:15:00;22.58;61.54
74416;SHT31;62850;42.428;25.618;2023-08-07T02:17:27;22.57;61.59
74416;SHT31;62850;42.428;25.618;2023-08-07T02:19:53;22.49;61.98
74416;SHT31;62850;42.428;25.618;2023-08-07T02:22:19;22.39;62.19
74416;SHT31;62850;42.428;25.618;2023-08-07T02:24:45;22.36;62.39
74416;SHT31;62850;42.428;25.618;2023-08-07T02:27:10;22.40;62.05
74416;SHT31;62850;42.428;25.618;2023-08-07T02:29:36;22.44;62.07
74416;SHT31;62850;42.428;25.618;2023-08-07T02:32:02;22.41;61.86
74416;SHT31;62850;42.428;25.618;2023-08-07T02:34:31;22.36;61.80
74416;SHT31;62850;42.428;25.618;2023-08-07T02:36:58;22.28;61.12
74416;SHT31;62850;42.428;25.618;2023-08-07T02:39:24;22.21;60.98
74416;SHT31;62850;42.428;25.618;2023-08-07T02:41:49;22.10;60.86
74416;SHT31;62850;42.428;25.618;2023-08-07T02:44:14;22.17;60.79
74416;SHT31;62850;42.428;25.618;2023-08-07T02:46:42;22.17;60.90
74416;SHT31;62850;42.428;25.618;2023-08-07T02:49:08;22.10;61.21
74416;SHT31;62850;42.428;25.618;2023-08-07T02:51:33;22.13;61.23
74416;SHT31;62850;42.428;25.618;2023-08-07T02:53:58;22.10;61.10
74416;SHT31;62850;42.428;25.618;2023-08-07T02:56:24;22.13;61.28
74416;SHT31;62850;42.428;25.618;2023-08-07T02:58:50;22.00;60.93
74416;SHT31;62850;42.428;25.618;2023-08-07T03:01:15;21.92;61.16
74416;SHT31;62850;42.428;25.618;2023-08-07T03:03:40;21.86;61.65
74416;SHT31;62850;42.428;25.618;2023-08-07T03:06:06;21.85;61.68
74416;SHT31;62850;42.428;25.618;2023-08-07T03:08:31;21.78;61.74
74416;SHT31;62850;42.428;25.618;2023-08-07T03:10:58;21.71;62.06
74416;SHT31;62850;42.428;25.618;2023-08-07T03:13:24;21.65;62.14
74416;SHT31;62850;42.428;25.618;2023-08-07T03:15:50;21.68;62.36
74416;SHT31;62850;42.428;25.618;2023-08-07T03:18:16;21.57;62.95
74416;SHT31;62850;42.428;25.618;2023-08-07T03:20:42;21.48;63.51
74416;SHT31;62850;42.428;25.618;2023-08-07T03:23:09;21.42;62.81
74416;SHT31;62850;42.428;25.618;2023-08-07T03:25:35;21.40;62.83
74416;SHT31;62850;42.428;25.618;2023-08-07T03:28:00;21.27;63.08
74416;SHT31;62850;42.428;25.618;2023-08-07T03:30:26;21.17;63.49
74416;SHT31;62850;42.428;25.618;2023-08-07T03:32:51;20.97;63.18
74416;SHT31;62850;42.428;25.618;2023-08-07T03:35:17;20.93;63.63
74416;SHT31;62850;42.428;25.618;2023-08-07T03:37:43;20.96;64.08
74416;SHT31;62850;42.428;25.618;2023-08-07T03:40:08;20.96;64.51
74416;SHT31;62850;42.428;25.618;2023-08-07T03:42:34;20.94;63.96
74416;SHT31;62850;42.428;25.618;2023-08-07T03:44:59;21.00;62.71
74416;SHT31;62850;42.428;25.618;2023-08-07T03:47:25;21.08;61.90
74416;SHT31;62850;42.428;25.618;2023-08-07T03:49:51;21.20;59.58
74416;SHT31;62850;42.428;25.618;2023-08-07T03:52:16;21.20;58.66
74416;SHT31;62850;42.428;25.618;2023-08-07T03:54:43;21.24;58.71
74416;SHT31;62850;42.428;25.618;2023-08-07T03:57:08;21.31;58.17
74416;SHT31;62850;42.428;25.618;2023-08-07T03:59:35;21.38;57.97
74416;SHT31;62850;42.428;25.618;2023-08-07T04:02:01;21.50;57.70
74416;SHT31;62850;42.428;25.618;2023-08-07T04:04:26;21.48;58.31
74416;SHT31;62850;42.428;25.618;2023-08-07T04:06:52;21.52;59.27
74416;SHT31;62850;42.428;25.618;2023-08-07T04:09:17;21.55;59.48
74416;SHT31;62850;42.428;25.618;2023-08-07T04:11:43;21.61;59.50
74416;SHT31;62850;42.428;25.618;2023-08-07T04:14:08;21.59;59.34
74416;SHT31;62850;42.428;25.618;2023-08-07T04:16:34;21.57;59.93
74416;SHT31;62850;42.428;25.618;2023-08-07T04:18:59;21.59;59.60
74416;SHT31;62850;42.428;25.618;2023-08-07T04:21:25;21.69;60.13
74416;SHT31;62850;42.428;25.618;2023-08-07T04:23:50;21.74;59.52
74416;SHT31;62850;42.428;25.618;2023-08-07T04:26:16;21.83;59.52
74416;SHT31;62850;42.428;25.618;2023-08-07T04:28:42;21.83;59.83
74416;SHT31;62850;42.428;25.618;2023-08-07T04:31:07;21.82;59.76
74416;SHT31;62850;42.428;25.618;2023-08-07T04:33:33;21.88;59.95
74416;SHT31;62850;42.428;25.618;2023-08-07T04:35:59;21.95;60.40
74416;SHT31;62850;42.428;25.618;2023-08-07T04:38:24;21.98;61.01
74416;SHT31;62850;42.428;25.618;2023-08-07T04:40:51;22.00;60.68
74416;SHT31;62850;42.428;25.618;2023-08-07T04:43:18;22.05;60.43
74416;SHT31;62850;42.428;25.618;2023-08-07T04:45:45;22.05;60.40
74416;SHT31;62850;42.428;25.618;2023-08-07T04:48:11;22.06;60.57
74416;SHT31;62850;42.428;25.618;2023-08-07T04:50:39;22.14;60.19
74416;SHT31;62850;42.428;25.618;2023-08-07T04:53:05;22.17;60.62
74416;SHT31;62850;42.428;25.618;2023-08-07T04:55:31;22.21;60.84
74416;SHT31;62850;42.428;25.618;2023-08-07T04:57:57;22.32;60.79
74416;SHT31;62850;42.428;25.618;2023-08-07T05:00:24;22.32;59.39
74416;SHT31;62850;42.428;25.618;2023-08-07T05:02:50;22.32;59.05
74416;SHT31;62850;42.428;25.618;2023-08-07T05:05:16;22.39;59.51
74416;SHT31;62850;42.428;25.618;2023-08-07T05:07:44;22.43;58.55
74416;SHT31;62850;42.428;25.618;2023-08-07T05:10:09;22.41;59.20
74416;SHT31;62850;42.428;25.618;2023-08-07T05:12:35;22.49;58.73
74416;SHT31;62850;42.428;25.618;2023-08-07T05:15:01;22.51;57.12
74416;SHT31;62850;42.428;25.618;2023-08-07T05:17:26;22.49;55.20
74416;SHT31;62850;42.428;25.618;2023-08-07T05:19:52;22.49;53.26
74416;SHT31;62850;42.428;25.618;2023-08-07T05:22:18;22.60;53.02
74416;SHT31;62850;42.428;25.618;2023-08-07T05:24:43;22.67;52.04
74416;SHT31;62850;42.428;25.618;2023-08-07T05:27:11;22.74;53.34
74416;SHT31;62850;42.428;25.618;2023-08-07T05:29:36;22.81;51.87
74416;SHT31;62850;42.428;25.618;2023-08-07T05:32:12;22.74;51.73
74416;SHT31;62850;42.428;25.618;2023-08-07T05:34:38;22.83;51.97
74416;SHT31;62850;42.428;25.618;2023-08-07T05:37:05;22.86;51.06
74416;SHT31;62850;42.428;25.618;2023-08-07T05:39:31;22.95;50.75
74416;SHT31;62850;42.428;25.618;2023-08-07T05:41:56;23.02;50.16
74416;SHT31;62850;42.428;25.618;2023-08-07T05:44:23;23.01;49.97
74416;SHT31;62850;42.428;25.618;2023-08-07T05:46:49;23.09;49.55
74416;SHT31;62850;42.428;25.618;2023-08-07T05:49:15;23.11;49.31
74416;SHT31;62850;42.428;25.618;2023-08-07T05:51:41;23.20;50.06
74416;SHT31;62850;42.428;25.618;2023-08-07T05:54:06;23.29;50.31
74416;SHT31;62850;42.428;25.618;2023-08-07T05:56:32;23.22;48.79
74416;SHT31;62850;42.428;25.618;2023-08-07T05:58:58;23.29;48.00
74416;SHT31;62850;42.428;25.618;2023-08-07T06:01:23;23.41;47.81
74416;SHT31;62850;42.428;25.618;2023-08-07T06:03:54;23.43;47.98
74416;SHT31;62850;42.428;25.618;2023-08-07T06:06:20;23.60;47.57
74416;SHT31;62850;42.428;25.618;2023-08-07T06:08:45;23.71;46.28
74416;SHT31;62850;42.428;25.618;2023-08-07T06:11:11;23.70;46.32
74416;SHT31;62850;42.428;25.618;2023-08-07T06:13:37;23.80;46.10
74416;SHT31;62850;42.428;25.618;2023-08-07T06:16:02;23.92;46.19
74416;SHT31;62850;42.428;25.618;2023-08-07T06:18:28;23.83;45.23
74416;SHT31;62850;42.428;25.618;2023-08-07T06:20:56;23.84;45.21
74416;SHT31;62850;42.428;25.618;2023-08-07T06:23:21;23.83;45.11
74416;SHT31;62850;42.428;25.618;2023-08-07T06:25:46;23.80;45.05
74416;SHT31;62850;42.428;25.618;2023-08-07T06:28:12;23.88;44.67
74416;SHT31;62850;42.428;25.618;2023-08-07T06:30:38;23.90;44.82
74416;SHT31;62850;42.428;25.618;2023-08-07T06:33:03;24.01;44.79
74416;SHT31;62850;42.428;25.618;2023-08-07T06:35:29;24.14;44.65
74416;SHT31;62850;42.428;25.618;2023-08-07T06:37:54;24.15;44.67
74416;SHT31;62850;42.428;25.618;2023-08-07T06:40:20;24.29;44.63
74416;SHT31;62850;42.428;25.618;2023-08-07T06:42:46;24.24;44.11
74416;SHT31;62850;42.428;25.618;2023-08-07T06:45:11;24.39;43.44
74416;SHT31;62850;42.428;25.618;2023-08-07T06:47:37;24.62;42.68
74416;SHT31;62850;42.428;25.618;2023-08-07T06:50:02;24.62;42.64
74416;SHT31;62850;42.428;25.618;2023-08-07T06:52:28;24.76;42.79
74416;SHT31;62850;42.428;25.618;2023-08-07T06:54:53;24.76;42.45
74416;SHT31;62850;42.428;25.618;2023-08-07T06:57:19;24.73;42.69
74416;SHT31;62850;42.428;25.618;2023-08-07T06:59:45;24.77;42.34
74416;SHT31;62850;42.428;25.618;2023-08-07T07:02:10;24.69;42.10
74416;SHT31;62850;42.428;25.618;2023-08-07T07:04:36;24.80;42.47
74416;SHT31;62850;42.428;25.618;2023-08-07T07:07:02;24.96;42.01
74416;SHT31;62850;42.428;25.618;2023-08-07T07:09:28;24.96;40.96
74416;SHT31;62850;42.428;25.618;2023-08-07T07:11:54;24.96;40.41
74416;SHT31;62850;42.428;25.618;2023-08-07T07:14:21;25.00;40.54
74416;SHT31;62850;42.428;25.618;2023-08-07T07:16:46;25.09;39.80
74416;SHT31;62850;42.428;25.618;2023-08-07T07:19:12;25.22;40.45
74416;SHT31;62850;42.428;25.618;2023-08-07T07:21:38;25.31;40.73
74416;SHT31;62850;42.428;25.618;2023-08-07T07:24:03;25.44;40.10
74416;SHT31;62850;42.428;25.618;2023-08-07T07:26:29;25.62;39.98
74416;SHT31;62850;42.428;25.618;2023-08-07T07:28:55;25.68;39.61
74416;SHT31;62850;42.428;25.618;2023-08-07T07:31:20;25.82;38.76
74416;SHT31;62850;42.428;25.618;2023-08-07T07:33:46;26.01;38.11
74416;SHT31;62850;42.428;25.618;2023-08-07T07:36:16;25.74;37.51
74416;SHT31;62850;42.428;25.618;2023-08-07T07:38:42;25.95;37.99
74416;SHT31;62850;42.428;25.618;2023-08-07T07:41:08;26.11;37.63
74416;SHT31;62850;42.428;25.618;2023-08-07T07:43:36;26.25;37.29
74416;SHT31;62850;42.428;25.618;2023-08-07T07:46:02;26.43;36.24
74416;SHT31;62850;42.428;25.618;2023-08-07T07:48:27;26.70;36.02
74416;SHT31;62850;42.428;25.618;2023-08-07T07:50:58;27.15;35.43
74416;SHT31;62850;42.428;25.618;2023-08-07T07:53:24;27.39;34.94
74416;SHT31;62850;42.428;25.618;2023-08-07T07:55:50;27.60;34.44
74416;SHT31;62850;42.428;25.618;2023-08-07T07:58:15;27.71;34.80
74416;SHT31;62850;42.428;25.618;2023-08-07T08:00:41;27.96;33.86
74416;SHT31;62850;42.428;25.618;2023-08-07T08:03:07;28.29;33.02
74416;SHT31;62850;42.428;25.618;2023-08-07T08:05:33;28.68;31.71
74416;SHT31;62850;42.428;25.618;2023-08-07T08:08:00;28.80;30.51
74416;SHT31;62850;42.428;25.618;2023-08-07T08:10:27;28.88;31.14
74416;SHT31;62850;42.428;25.618;2023-08-07T08:12:54;28.86;30.83
74416;SHT31;62850;42.428;25.618;2023-08-07T08:15:20;29.03;31.01
74416;SHT31;62850;42.428;25.618;2023-08-07T08:17:46;29.34;30.91
74416;SHT31;62850;42.428;25.618;2023-08-07T08:20:12;29.81;30.58
74416;SHT31;62850;42.428;25.618;2023-08-07T08:22:40;30.26;31.66
74416;SHT31;62850;42.428;25.618;2023-08-07T08:25:06;30.49;30.39
74416;SHT31;62850;42.428;25.618;2023-08-07T08:27:32;30.77;29.15
74416;SHT31;62850;42.428;25.618;2023-08-07T08:29:57;31.03;29.43
74416;SHT31;62850;42.428;25.618;2023-08-07T08:32:23;31.30;29.68
74416;SHT31;62850;42.428;25.618;2023-08-07T08:34:49;31.22;29.50
74416;SHT31;62850;42.428;25.618;2023-08-07T08:37:15;31.18;29.19
74416;SHT31;62850;42.428;25.618;2023-08-07T08:39:41;31.49;28.52
74416;SHT31;62850;42.428;25.618;2023-08-07T08:42:09;31.11;28.39
74416;SHT31;62850;42.428;25.618;2023-08-07T08:44:37;30.90;29.17
74416;SHT31;62850;42.428;25.618;2023-08-07T08:47:04;30.98;29.13
74416;SHT31;62850;42.428;25.618;2023-08-07T08:49:37;31.22;29.04
74416;SHT31;62850;42.428;25.618;2023-08-07T08:52:06;31.57;28.63
74416;SHT31;62850;42.428;25.618;2023-08-07T08:54:32;31.65;28.56
74416;SHT31;62850;42.428;25.618;2023-08-07T08:56:58;31.61;28.63
74416;SHT31;62850;42.428;25.618;2023-08-07T08:59:25;31.78;29.65
74416;SHT31;62850;42.428;25.618;2023-08-07T09:01:51;31.88;29.50
74416;SHT31;62850;42.428;25.618;2023-08-07T09:04:18;32.13;28.41
74416;SHT31;62850;42.428;25.618;2023-08-07T09:06:44;32.16;28.82
74416;SHT31;62850;42.428;25.618;2023-08-07T09:09:11;32.17;28.63
74416;SHT31;62850;42.428;25.618;2023-08-07T09:11:37;32.21;28.86
74416;SHT31;62850;42.428;25.618;2023-08-07T09:14:03;32.31;28.77
74416;SHT31;62850;42.428;25.618;2023-08-07T09:16:30;32.44;28.89
74416;SHT31;62850;42.428;25.618;2023-08-07T09:18:56;32.54;28.58
74416;SHT31;62850;42.428;25.618;2023-08-07T09:21:21;32.45;29.09
74416;SHT31;62850;42.428;25.618;2023-08-07T09:23:47;32.61;28.36
74416;SHT31;62850;42.428;25.618;2023-08-07T09:26:12;32.64;27.95
74416;SHT31;62850;42.428;25.618;2023-08-07T09:28:38;32.27;27.29
74416;SHT31;62850;42.428;25.618;2023-08-07T09:31:06;32.17;27.96
74416;SHT31;62850;42.428;25.618;2023-08-07T09:33:34;32.29;28.88
74416;SHT31;62850;42.428;25.618;2023-08-07T09:36:00;32.57;27.95
74416;SHT31;62850;42.428;25.618;2023-08-07T09:38:30;32.58;28.16
74416;SHT31;62850;42.428;25.618;2023-08-07T09:40:58;32.75;28.06
74416;SHT31;62850;42.428;25.618;2023-08-07T09:43:24;32.74;28.08
74416;SHT31;62850;42.428;25.618;2023-08-07T09:45:50;32.78;26.85
74416;SHT31;62850;42.428;25.618;2023-08-07T09:48:23;32.58;27.07
74416;SHT31;62850;42.428;25.618;2023-08-07T09:50:53;32.47;26.38
74416;SHT31;62850;42.428;25.618;2023-08-07T09:53:25;32.27;26.61
74416;SHT31;62850;42.428;25.618;2023-08-07T09:55:55;32.13;26.96
74416;SHT31;62850;42.428;25.618;2023-08-07T09:58:22;32.30;27.05
74416;SHT31;62850;42.428;25.618;2023-08-07T10:00:48;32.43;27.07
74416;SHT31;62850;42.428;25.618;2023-08-07T10:03:14;32.33;26.45
74416;SHT31;62850;42.428;25.618;2023-08-07T10:05:41;32.37;26.33
74416;SHT31;62850;42.428;25.618;2023-08-07T10:08:07;32.43;26.40
74416;SHT31;62850;42.428;25.618;2023-08-07T10:10:33;32.23;26.40
74416;SHT31;62850;42.428;25.618;2023-08-07T10:13:01;32.10;26.78
74416;SHT31;62850;42.428;25.618;2023-08-07T10:15:29;31.96;26.93
74416;SHT31;62850;42.428;25.618;2023-08-07T10:17:55;31.82;27.05
74416;SHT31;62850;42.428;25.618;2023-08-07T10:20:21;32.03;27.58
74416;SHT31;62850;42.428;25.618;2023-08-07T10:22:48;32.37;27.31
74416;SHT31;62850;42.428;25.618;2023-08-07T10:25:15;32.74;26.08
74416;SHT31;62850;42.428;25.618;2023-08-07T10:27:43;32.88;26.48
74416;SHT31;62850;42.428;25.618;2023-08-07T10:30:11;33.04;26.03
74416;SHT31;62850;42.428;25.618;2023-08-07T10:32:41;33.19;25.56
74416;SHT31;62850;42.428;25.618;2023-08-07T10:35:08;33.14;25.56
74416;SHT31;62850;42.428;25.618;2023-08-07T10:37:44;33.29;26.05
74416;SHT31;62850;42.428;25.618;2023-08-07T10:40:11;33.36;25.94
74416;SHT31;62850;42.428;25.618;2023-08-07T10:42:59;33.45;25.74
74416;SHT31;62850;42.428;25.618;2023-08-07T10:45:26;33.57;25.87
74416;SHT31;62850;42.428;25.618;2023-08-07T10:48:01;33.72;25.32
74416;SHT31;62850;42.428;25.618;2023-08-07T10:53:19;33.69;24.89
74416;SHT31;62850;42.428;25.618;2023-08-07T10:55:46;33.63;25.20
74416;SHT31;62850;42.428;25.618;2023-08-07T10:58:26;33.87;25.31
74416;SHT31;62850;42.428;25.618;2023-08-07T11:03:46;34.17;25.13
74416;SHT31;62850;42.428;25.618;2023-08-07T11:06:13;34.24;24.66
74416;SHT31;62850;42.428;25.618;2023-08-07T11:08:39;34.21;24.69
74416;SHT31;62850;42.428;25.618;2023-08-07T11:11:05;34.20;24.66
74416;SHT31;62850;42.428;25.618;2023-08-07T11:13:32;34.18;24.12
74416;SHT31;62850;42.428;25.618;2023-08-07T11:15:58;34.01;24.28
74416;SHT31;62850;42.428;25.618;2023-08-07T11:18:25;34.00;24.52
74416;SHT31;62850;42.428;25.618;2023-08-07T11:20:52;33.86;24.44
74416;SHT31;62850;42.428;25.618;2023-08-07T11:23:23;34.11;24.29
74416;SHT31;62850;42.428;25.618;2023-08-07T11:25:49;34.38;24.71
74416;SHT31;62850;42.428;25.618;2023-08-07T11:28:20;34.62;24.90
74416;SHT31;62850;42.428;25.618;2023-08-07T11:30:49;34.81;24.58
74416;SHT31;62850;42.428;25.618;2023-08-07T11:33:17;34.96;23.90
74416;SHT31;62850;42.428;25.618;2023-08-07T11:35:44;35.20;23.83
74416;SHT31;62850;42.428;25.618;2023-08-07T11:38:09;35.14;23.68
74416;SHT31;62850;42.428;25.618;2023-08-07T11:40:35;35.25;23.33
74416;SHT31;62850;42.428;25.618;2023-08-07T11:43:01;35.07;23.13
74416;SHT31;62850;42.428;25.618;2023-08-07T11:45:27;34.88;22.85
74416;SHT31;62850;42.428;25.618;2023-08-07T11:47:52;34.82;23.78
74416;SHT31;62850;42.428;25.618;2023-08-07T11:50:21;35.02;23.12
74416;SHT31;62850;42.428;25.618;2023-08-07T11:52:47;35.06;22.80
74416;SHT31;62850;42.428;25.618;2023-08-07T11:55:17;35.04;23.35
74416;SHT31;62850;42.428;25.618;2023-08-07T11:57:46;35.22;23.40
74416;SHT31;62850;42.428;25.618;2023-08-07T12:00:12;35.40;23.83
74416;SHT31;62850;42.428;25.618;2023-08-07T12:02:42;35.53;22.84
74416;SHT31;62850;42.428;25.618;2023-08-07T12:05:09;35.37;22.79
74416;SHT31;62850;42.428;25.618;2023-08-07T12:07:39;35.26;22.64
74416;SHT31;62850;42.428;25.618;2023-08-07T12:10:08;35.55;22.58
74416;SHT31;62850;42.428;25.618;2023-08-07T12:12:38;35.39;22.53
74416;SHT31;62850;42.428;25.618;2023-08-07T12:15:09;35.25;22.73
74416;SHT31;62850;42.428;25.618;2023-08-07T12:17:36;34.85;22.81
74416;SHT31;62850;42.428;25.618;2023-08-07T12:20:04;35.00;23.32
74416;SHT31;62850;42.428;25.618;2023-08-07T12:22:32;35.04;22.51
74416;SHT31;62850;42.428;25.618;2023-08-07T12:24:57;35.14;22.80
74416;SHT31;62850;42.428;25.618;2023-08-07T12:27:23;35.13;23.29
74416;SHT31;62850;42.428;25.618;2023-08-07T12:29:48;35.13;22.21
74416;SHT31;62850;42.428;25.618;2023-08-07T12:32:14;34.85;22.39
74416;SHT31;62850;42.428;25.618;2023-08-07T12:34:39;34.59;22.72
74416;SHT31;62850;42.428;25.618;2023-08-07T12:37:06;34.51;23.07
74416;SHT31;62850;42.428;25.618;2023-08-07T12:39:31;34.76;22.52
74416;SHT31;62850;42.428;25.618;2023-08-07T12:41:57;34.82;22.77
74416;SHT31;62850;42.428;25.618;2023-08-07T12:44:23;34.86;23.00
74416;SHT31;62850;42.428;25.618;2023-08-07T12:46:49;35.27;23.27
74416;SHT31;62850;42.428;25.618;2023-08-07T12:49:15;35.46;22.53
74416;SHT31;62850;42.428;25.618;2023-08-07T12:51:40;35.53;22.23
74416;SHT31;62850;42.428;25.618;2023-08-07T12:54:06;35.43;22.11
74416;SHT31;62850;42.428;25.618;2023-08-07T12:56:31;35.34;22.11
74416;SHT31;62850;42.428;25.618;2023-08-07T12:58:57;35.64;22.20
74416;SHT31;62850;42.428;25.618;2023-08-07T13:01:22;35.71;22.24
74416;SHT31;62850;42.428;25.618;2023-08-07T13:03:48;35.47;21.46
74416;SHT31;62850;42.428;25.618;2023-08-07T13:06:13;35.34;21.25
74416;SHT31;62850;42.428;25.618;2023-08-07T13:08:39;35.49;21.96
74416;SHT31;62850;42.428;25.618;2023-08-07T13:11:04;35.70;23.15
74416;SHT31;62850;42.428;25.618;2023-08-07T13:13:30;36.04;22.26
74416;SHT31;62850;42.428;25.618;2023-08-07T13:15:56;35.65;20.69
74416;SHT31;62850;42.428;25.618;2023-08-07T13:18:22;35.74;21.06
74416;SHT31;62850;42.428;25.618;2023-08-07T13:20:48;35.80;21.61
74416;SHT31;62850;42.428;25.618;2023-08-07T13:23:13;35.76;21.17
74416;SHT31;62850;42.428;25.618;2023-08-07T13:25:40;35.85;21.23
74416;SHT31;62850;42.428;25.618;2023-08-07T13:28:05;36.04;20.89
74416;SHT31;62850;42.428;25.618;2023-08-07T13:30:35;36.22;21.07
74416;SHT31;62850;42.428;25.618;2023-08-07T13:33:00;36.26;21.49
74416;SHT31;62850;42.428;25.618;2023-08-07T13:35:26;36.33;21.04
74416;SHT31;62850;42.428;25.618;2023-08-07T13:37:52;36.35;21.14
74416;SHT31;62850;42.428;25.618;2023-08-07T13:40:17;36.39;20.96
74416;SHT31;62850;42.428;25.618;2023-08-07T13:42:45;36.35;20.97
74416;SHT31;62850;42.428;25.618;2023-08-07T13:45:12;36.49;20.82
74416;SHT31;62850;42.428;25.618;2023-08-07T13:47:38;36.45;21.85
74416;SHT31;62850;42.428;25.618;2023-08-07T13:50:04;36.31;22.41
74416;SHT31;62850;42.428;25.618;2023-08-07T13:52:31;36.04;22.89
74416;SHT31;62850;42.428;25.618;2023-08-07T13:54:56;36.09;22.58
74416;SHT31;62850;42.428;25.618;2023-08-07T13:57:22;36.32;22.64
74416;SHT31;62850;42.428;25.618;2023-08-07T13:59:47;36.24;22.42
74416;SHT31;62850;42.428;25.618;2023-08-07T14:02:13;36.33;22.58
74416;SHT31;62850;42.428;25.618;2023-08-07T14:04:39;36.15;22.66
74416;SHT31;62850;42.428;25.618;2023-08-07T14:07:04;36.04;22.33
74416;SHT31;62850;42.428;25.618;2023-08-07T14:09:30;35.92;23.37
74416;SHT31;62850;42.428;25.618;2023-08-07T14:11:56;35.80;23.62
74416;SHT31;62850;42.428;25.618;2023-08-07T14:14:22;35.94;23.48
74416;SHT31;62850;42.428;25.618;2023-08-07T14:16:48;35.68;23.59
74416;SHT31;62850;42.428;25.618;2023-08-07T14:19:13;35.41;23.86
74416;SHT31;62850;42.428;25.618;2023-08-07T14:21:39;35.31;24.40
74416;SHT31;62850;42.428;25.618;2023-08-07T14:24:05;35.26;25.40
74416;SHT31;62850;42.428;25.618;2023-08-07T14:26:31;34.96;25.49
74416;SHT31;62850;42.428;25.618;2023-08-07T14:28:56;34.27;25.75
74416;SHT31;62850;42.428;25.618;2023-08-07T14:31:22;34.47;25.88
74416;SHT31;62850;42.428;25.618;2023-08-07T14:33:47;34.44;26.06
74416;SHT31;62850;42.428;25.618;2023-08-07T14:36:13;34.15;26.14
74416;SHT31;62850;42.428;25.618;2023-08-07T14:38:40;33.86;25.93
74416;SHT31;62850;42.428;25.618;2023-08-07T14:41:05;33.74;26.08
74416;SHT31;62850;42.428;25.618;2023-08-07T14:43:31;33.76;26.18
74416;SHT31;62850;42.428;25.618;2023-08-07T14:45:58;33.69;26.16
74416;SHT31;62850;42.428;25.618;2023-08-07T14:48:23;33.05;26.55
74416;SHT31;62850;42.428;25.618;2023-08-07T14:50:49;33.08;26.99
74416;SHT31;62850;42.428;25.618;2023-08-07T14:53:14;33.23;26.67
74416;SHT31;62850;42.428;25.618;2023-08-07T14:55:40;33.30;26.63
74416;SHT31;62850;42.428;25.618;2023-08-07T14:58:06;33.04;26.46
74416;SHT31;62850;42.428;25.618;2023-08-07T15:00:32;32.87;26.79
74416;SHT31;62850;42.428;25.618;2023-08-07T15:02:58;32.61;26.97
74416;SHT31;62850;42.428;25.618;2023-08-07T15:05:23;32.51;27.32
74416;SHT31;62850;42.428;25.618;2023-08-07T15:07:49;32.71;27.50
74416;SHT31;62850;42.428;25.618;2023-08-07T15:10:14;32.94;27.55
74416;SHT31;62850;42.428;25.618;2023-08-07T15:12:40;32.53;27.24
74416;SHT31;62850;42.428;25.618;2023-08-07T15:15:05;32.71;27.36
74416;SHT31;62850;42.428;25.618;2023-08-07T15:17:31;32.30;27.54